»·PEaware :: SWA1127 KPHX-KLAX

SWA1127 :: KPHX-KLAX

FLIGHT INFORMATION

Flight Status: Arrived
Operator:
Southwest Airlines
More flights by this operator :: More flights under this callsign
Pilot: Alfredo R. (12181)
Aircraft: BOEING 737-800
(B738)
More flights by this aircraft type
Origin: KPHX Phoenix Sky Harbor Intl
United States
Destination: KLAX Los Angeles Intl
United States
More flights between these airports :: More routes between these airports
Route: IZZZO6 MESSI ESTWD HLYWD1
File this flight plan on PilotEdge
Remarks:
Altitude:
(Current/Filed)
32,000ft
Speed:
(Current/Filed)
450kts
Departed: 20-Sep-17 07:45 PM
Arrived: 20-Sep-17 08:46 PM
Distance/Time
Traveled:
321nm/1:01
Distance/Time
To Go:
Arrived

Flight Plot

Page will automatically refresh every two minutes.

Flight plan parsing failed; only flown route is shown


Map Options




Map Legend


Flown Route
Filed Route
Departure Airport
Arrival Airport
Navaid (VOR, NDB)
Fix

Horizontal Profiles

Position Reports

Time Latitude Longitude Heading Altitude Ground
Speed
20-Sep-17 19:15 33.434033 -111.997355 83 1141ft 0kts
20-Sep-17 19:16 33.434033 -111.997355 83 1141ft 0kts
20-Sep-17 19:17 33.434033 -111.997355 83 1141ft 0kts
20-Sep-17 19:18 33.434033 -111.997355 83 1141ft 0kts
20-Sep-17 19:19 33.434033 -111.997355 83 1141ft 0kts
20-Sep-17 19:20 33.434033 -111.997355 83 1141ft 0kts
20-Sep-17 19:21 33.434033 -111.997355 83 1141ft 0kts
20-Sep-17 19:22 33.434033 -111.997355 83 1141ft 0kts
20-Sep-17 19:23 33.434033 -111.997355 83 1141ft 0kts
20-Sep-17 19:24 33.434033 -111.997355 83 1141ft 0kts
20-Sep-17 19:25 33.434033 -111.997355 83 1141ft 0kts
20-Sep-17 19:26 33.434033 -111.997355 82 1141ft 0kts
20-Sep-17 19:27 33.434029 -111.997444 83 1141ft 0kts
20-Sep-17 19:28 33.434022 -111.997522 83 1141ft 0kts
20-Sep-17 19:29 33.434022 -111.997522 83 1141ft 0kts
20-Sep-17 19:30 33.434022 -111.997522 83 1141ft 0kts
20-Sep-17 19:31 33.434022 -111.997536 83 1141ft 0kts
20-Sep-17 19:32 33.434001 -111.997774 85 1142ft 1kts
20-Sep-17 19:33 33.434040 -111.997924 142 1142ft 0kts
20-Sep-17 19:34 33.434040 -111.997924 142 1142ft 0kts
20-Sep-17 19:35 33.434040 -111.997924 142 1142ft 0kts
20-Sep-17 19:36 33.434040 -111.997924 142 1142ft 0kts
20-Sep-17 19:37 33.434039 -111.997923 143 1142ft 0kts
20-Sep-17 19:38 33.433421 -111.997811 181 1142ft 1kts
20-Sep-17 19:39 33.433358 -111.997814 181 1142ft 0kts
20-Sep-17 19:40 33.433358 -111.997814 181 1142ft 0kts
20-Sep-17 19:41 33.433287 -111.997816 181 1142ft 0kts
20-Sep-17 19:42 33.432784 -111.997949 200 1142ft 3kts
20-Sep-17 19:43 33.432174 -111.997809 120 1142ft 1kts
20-Sep-17 19:44 33.432128 -111.996494 88 1142ft 6kts
20-Sep-17 19:45 33.432127 -111.994248 89 1141ft 6kts
20-Sep-17 19:46 33.432001 -111.993635 130 1141ft 0kts
20-Sep-17 19:47 33.431640 -111.993429 173 1141ft 4kts
20-Sep-17 19:48 33.431034 -111.994276 270 1141ft 0kts
20-Sep-17 19:49 33.431021 -112.004691 270 1142ft 106kts
20-Sep-17 19:50 33.431671 -112.056997 270 2443ft 177kts
20-Sep-17 19:51 33.433830 -112.125194 271 4016ft 238kts
20-Sep-17 19:52 33.437110 -112.208363 269 6668ft 266kts
20-Sep-17 19:53 33.440192 -112.297662 269 9604ft 275kts
20-Sep-17 19:54 33.443413 -112.394857 269 11450ft 318kts
20-Sep-17 19:55 33.446882 -112.499806 270 14177ft 325kts
20-Sep-17 19:56 33.450238 -112.609348 269 16898ft 334kts
20-Sep-17 19:57 33.451755 -112.721567 268 19156ft 346kts
20-Sep-17 19:58 33.466411 -112.835800 288 21216ft 362kts
20-Sep-17 19:59 33.505026 -112.948785 289 23062ft 374kts
20-Sep-17 20:00 33.545360 -113.064601 289 24858ft 382kts
20-Sep-17 20:01 33.586385 -113.182555 289 26515ft 388kts
20-Sep-17 20:02 33.627241 -113.300435 289 28547ft 377kts
20-Sep-17 20:03 33.667023 -113.415566 289 30126ft 371kts
20-Sep-17 20:04 33.705889 -113.528506 289 31482ft 365kts
20-Sep-17 20:05 33.745056 -113.642812 289 31837ft 385kts
20-Sep-17 20:06 33.787365 -113.766662 289 31780ft 418kts
20-Sep-17 20:07 33.831563 -113.896387 289 31762ft 419kts
20-Sep-17 20:08 33.875506 -114.025912 289 31761ft 419kts
20-Sep-17 20:09 33.912109 -114.157561 280 31770ft 417kts
20-Sep-17 20:10 33.935769 -114.293952 279 31760ft 415kts
20-Sep-17 20:11 33.958633 -114.429304 280 31759ft 415kts
20-Sep-17 20:12 33.980345 -114.558888 280 31756ft 415kts
20-Sep-17 20:13 34.002900 -114.694484 279 31767ft 415kts
20-Sep-17 20:14 34.025327 -114.830233 279 31763ft 413kts
20-Sep-17 20:15 34.047564 -114.965849 279 31763ft 414kts
20-Sep-17 20:16 34.069687 -115.101509 279 31759ft 414kts
20-Sep-17 20:17 34.091390 -115.235401 279 31760ft 413kts
20-Sep-17 20:18 34.113191 -115.370888 279 31762ft 413kts
20-Sep-17 20:19 34.134868 -115.506547 279 31892ft 413kts
20-Sep-17 20:20 34.156361 -115.642366 278 31890ft 412kts
20-Sep-17 20:21 34.154424 -115.778510 264 31900ft 411kts
20-Sep-17 20:22 34.141947 -115.915434 263 30637ft 415kts
20-Sep-17 20:23 34.128884 -116.049832 263 29104ft 392kts
20-Sep-17 20:24 34.115791 -116.182765 263 27640ft 407kts
20-Sep-17 20:25 34.102653 -116.313848 262 26106ft 393kts
20-Sep-17 20:26 34.089271 -116.439164 262 24581ft 372kts
20-Sep-17 20:27 34.076518 -116.557492 262 23003ft 356kts
20-Sep-17 20:28 34.065302 -116.673350 262 21504ft 349kts
20-Sep-17 20:29 34.054618 -116.787814 262 20012ft 344kts
20-Sep-17 20:30 34.043811 -116.898637 260 18789ft 338kts
20-Sep-17 20:31 34.029481 -117.009368 260 17589ft 334kts
20-Sep-17 20:32 34.016315 -117.118503 261 16384ft 328kts
20-Sep-17 20:33 34.003533 -117.225825 261 15174ft 323kts
20-Sep-17 20:34 33.991235 -117.328913 261 13984ft 316kts
20-Sep-17 20:35 33.979909 -117.425097 261 12768ft 298kts
20-Sep-17 20:36 33.980542 -117.517818 282 11820ft 299kts
20-Sep-17 20:37 34.001249 -117.609522 283 10847ft 295kts
20-Sep-17 20:38 34.019887 -117.699156 267 9780ft 267kts
20-Sep-17 20:39 34.013358 -117.783048 263 8838ft 256kts
20-Sep-17 20:40 34.005983 -117.862319 263 7763ft 230kts
20-Sep-17 20:41 33.999022 -117.934397 262 6693ft 211kts
20-Sep-17 20:42 33.992643 -118.001093 263 5914ft 212kts
20-Sep-17 20:43 33.986006 -118.070657 262 4910ft 210kts
20-Sep-17 20:44 33.979590 -118.134491 261 3997ft 183kts
20-Sep-17 20:45 33.973900 -118.190341 262 3348ft 164kts
20-Sep-17 20:46 33.968273 -118.245514 263 2675ft 168kts
20-Sep-17 20:47 33.962799 -118.299022 263 1819ft 151kts
20-Sep-17 20:48 33.957988 -118.345719 262 1074ft 141kts
20-Sep-17 20:49 33.953248 -118.391085 261 306ft 135kts
20-Sep-17 20:50 33.950408 -118.417170 250 132ft 15kts
20-Sep-17 20:51 33.949631 -118.418860 234 133ft 8kts
20-Sep-17 20:52 33.947781 -118.421819 232 133ft 12kts
20-Sep-17 20:53 33.947085 -118.420009 82 132ft 14kts
20-Sep-17 20:54 33.947686 -118.414347 77 132ft 18kts
20-Sep-17 20:55 33.948400 -118.408450 83 133ft 17kts
20-Sep-17 20:56 33.948891 -118.403666 83 132ft 11kts
20-Sep-17 20:57 33.947528 -118.402257 113 132ft 3kts
20-Sep-17 20:58 33.947397 -118.401862 112 133ft 0kts
20-Sep-17 20:59 33.947397 -118.401862 112 133ft 0kts
20-Sep-17 21:00 33.947397 -118.401862 112 133ft 0kts
20-Sep-17 21:01 33.947397 -118.401862 112 133ft 0kts
20-Sep-17 21:02 33.947397 -118.401862 112 133ft 0kts
20-Sep-17 21:03 33.947397 -118.401862 112 133ft 0kts

Navigation Log

Ident Type
Flight plan parsing failed, navigation log unavailable